sensor_id;sensor_type;location;lat;lon;timestamp;pressure;altitude;pressure_sealevel;temperature;humidity
73558;BME280;61829;53.286;10.434;2022-09-24T00:01:17;101080.50;;;13.00;77.28
73558;BME280;61829;53.286;10.434;2022-09-24T00:03:48;101075.25;;;12.98;77.57
73558;BME280;61829;53.286;10.434;2022-09-24T00:06:15;101076.31;;;12.97;77.16
73558;BME280;61829;53.286;10.434;2022-09-24T00:08:45;101080.03;;;12.96;77.39
73558;BME280;61829;53.286;10.434;2022-09-24T00:11:12;101081.06;;;12.95;77.91
73558;BME280;61829;53.286;10.434;2022-09-24T00:13:40;101081.91;;;12.96;77.82
73558;BME280;61829;53.286;10.434;2022-09-24T00:16:09;101072.13;;;12.95;77.15
73558;BME280;61829;53.286;10.434;2022-09-24T00:18:36;101068.59;;;12.94;77.26
73558;BME280;61829;53.286;10.434;2022-09-24T00:23:47;101063.34;;;12.93;76.55
73558;BME280;61829;53.286;10.434;2022-09-24T00:26:13;101067.09;;;12.92;77.10
73558;BME280;61829;53.286;10.434;2022-09-24T00:28:58;101058.16;;;12.91;77.09
73558;BME280;61829;53.286;10.434;2022-09-24T00:31:25;101059.16;;;12.90;77.57
73558;BME280;61829;53.286;10.434;2022-09-24T00:33:52;101061.88;;;12.90;78.09
73558;BME280;61829;53.286;10.434;2022-09-24T00:36:21;101062.91;;;12.89;78.39
73558;BME280;61829;53.286;10.434;2022-09-24T00:38:53;101072.91;;;12.89;78.56
73558;BME280;61829;53.286;10.434;2022-09-24T00:41:21;101067.06;;;12.85;78.15
73558;BME280;61829;53.286;10.434;2022-09-24T00:43:48;101062.22;;;12.80;77.74
73558;BME280;61829;53.286;10.434;2022-09-24T00:49:06;101057.59;;;12.74;78.37
73558;BME280;61829;53.286;10.434;2022-09-24T00:51:36;101057.38;;;12.76;78.29
73558;BME280;61829;53.286;10.434;2022-09-24T00:54:06;101061.28;;;12.73;78.07
73558;BME280;61829;53.286;10.434;2022-09-24T00:56:35;101052.56;;;12.71;77.99
73558;BME280;61829;53.286;10.434;2022-09-24T00:59:04;101065.22;;;12.71;78.03
73558;BME280;61829;53.286;10.434;2022-09-24T01:01:31;101063.56;;;12.70;77.80
73558;BME280;61829;53.286;10.434;2022-09-24T01:03:59;101067.94;;;12.71;77.71
73558;BME280;61829;53.286;10.434;2022-09-24T01:06:26;101060.69;;;12.71;77.72
73558;BME280;61829;53.286;10.434;2022-09-24T01:08:53;101064.59;;;12.69;78.40
73558;BME280;61829;53.286;10.434;2022-09-24T01:22:47;101062.06;;;12.67;77.66
73558;BME280;61829;53.286;10.434;2022-09-24T01:30:35;101054.34;;;12.64;77.52
73558;BME280;61829;53.286;10.434;2022-09-24T01:33:12;101058.72;;;12.65;78.05
73558;BME280;61829;53.286;10.434;2022-09-24T01:35:46;101055.19;;;12.65;77.94
73558;BME280;61829;53.286;10.434;2022-09-24T01:38:20;101051.84;;;12.63;78.03
73558;BME280;61829;53.286;10.434;2022-09-24T01:40:49;101051.00;;;12.62;78.04
73558;BME280;61829;53.286;10.434;2022-09-24T01:43:19;101051.84;;;12.63;78.19
73558;BME280;61829;53.286;10.434;2022-09-24T01:45:46;101050.38;;;12.60;78.55
73558;BME280;61829;53.286;10.434;2022-09-24T01:48:13;101047.66;;;12.60;78.90
73558;BME280;61829;53.286;10.434;2022-09-24T01:51:51;101044.09;;;12.59;78.96
73558;BME280;61829;53.286;10.434;2022-09-24T01:53:53;101046.81;;;12.59;79.43
73558;BME280;61829;53.286;10.434;2022-09-24T01:56:51;101048.88;;;12.57;79.82
73558;BME280;61829;53.286;10.434;2022-09-24T01:59:22;101045.72;;;12.54;80.61
73558;BME280;61829;53.286;10.434;2022-09-24T02:01:57;101046.09;;;12.51;80.75
73558;BME280;61829;53.286;10.434;2022-09-24T02:04:26;101037.16;;;12.50;80.73
73558;BME280;61829;53.286;10.434;2022-09-24T02:07:16;101037.53;;;12.47;81.01
73558;BME280;61829;53.286;10.434;2022-09-24T02:09:44;101034.41;;;12.44;81.58
73558;BME280;61829;53.286;10.434;2022-09-24T02:14:40;101036.66;;;12.40;82.13
73558;BME280;61829;53.286;10.434;2022-09-24T02:17:08;101036.66;;;12.40;81.94
73558;BME280;61829;53.286;10.434;2022-09-24T02:19:36;101041.84;;;12.42;81.34
73558;BME280;61829;53.286;10.434;2022-09-24T02:22:06;101040.19;;;12.41;81.66
73558;BME280;61829;53.286;10.434;2022-09-24T02:24:49;101039.53;;;12.39;82.56
73558;BME280;61829;53.286;10.434;2022-09-24T02:27:17;101035.16;;;12.38;82.67
73558;BME280;61829;53.286;10.434;2022-09-24T02:29:44;101041.78;;;12.35;83.20
73558;BME280;61829;53.286;10.434;2022-09-24T02:32:13;101050.91;;;12.34;83.53
73558;BME280;61829;53.286;10.434;2022-09-24T02:34:45;101045.88;;;12.31;83.39
73558;BME280;61829;53.286;10.434;2022-09-24T02:37:14;101047.09;;;12.28;84.74
73558;BME280;61829;53.286;10.434;2022-09-24T02:39:41;101043.56;;;12.28;84.00
73558;BME280;61829;53.286;10.434;2022-09-24T02:42:09;101038.53;;;12.25;84.17
73558;BME280;61829;53.286;10.434;2022-09-24T02:44:37;101035.19;;;12.23;84.52
73558;BME280;61829;53.286;10.434;2022-09-24T02:47:04;101034.75;;;12.19;84.73
73558;BME280;61829;53.286;10.434;2022-09-24T02:49:31;101036.63;;;12.19;84.50
73558;BME280;61829;53.286;10.434;2022-09-24T02:51:57;101042.03;;;12.19;84.82
73558;BME280;61829;53.286;10.434;2022-09-24T02:54:23;101040.97;;;12.20;85.34
73558;BME280;61829;53.286;10.434;2022-09-24T02:56:50;101035.56;;;12.20;85.19
73558;BME280;61829;53.286;10.434;2022-09-24T02:59:17;101034.56;;;12.21;85.33
73558;BME280;61829;53.286;10.434;2022-09-24T03:01:44;101038.94;;;12.22;86.03
73558;BME280;61829;53.286;10.434;2022-09-24T03:04:10;101035.19;;;12.23;86.24
73558;BME280;61829;53.286;10.434;2022-09-24T03:06:36;101033.53;;;12.22;86.19
73558;BME280;61829;53.286;10.434;2022-09-24T03:09:03;101030.00;;;12.21;86.69
73558;BME280;61829;53.286;10.434;2022-09-24T03:11:30;101025.16;;;12.17;86.94
73558;BME280;61829;53.286;10.434;2022-09-24T03:13:58;101024.25;;;12.09;87.55
73558;BME280;61829;53.286;10.434;2022-09-24T03:16:25;101023.81;;;12.06;87.69
73558;BME280;61829;53.286;10.434;2022-09-24T03:18:51;101029.56;;;12.03;87.50
73558;BME280;61829;53.286;10.434;2022-09-24T03:21:19;101027.91;;;12.02;87.57
73558;BME280;61829;53.286;10.434;2022-09-24T03:23:46;101029.56;;;12.03;87.83
73558;BME280;61829;53.286;10.434;2022-09-24T03:26:12;101032.25;;;12.03;87.18
73558;BME280;61829;53.286;10.434;2022-09-24T03:28:40;101038.31;;;12.05;86.92
73558;BME280;61829;53.286;10.434;2022-09-24T03:31:06;101031.69;;;12.07;87.94
73558;BME280;61829;53.286;10.434;2022-09-24T03:33:44;101026.13;;;12.09;87.67
73558;BME280;61829;53.286;10.434;2022-09-24T03:36:12;101030.50;;;12.10;87.55
73558;BME280;61829;53.286;10.434;2022-09-24T03:38:41;101028.63;;;12.10;87.81
73558;BME280;61829;53.286;10.434;2022-09-24T03:41:08;101016.78;;;12.11;87.61
73558;BME280;61829;53.286;10.434;2022-09-24T03:43:35;101025.91;;;12.10;87.59
73558;BME280;61829;53.286;10.434;2022-09-24T03:46:03;101023.88;;;12.12;88.11
73558;BME280;61829;53.286;10.434;2022-09-24T03:48:35;101020.50;;;12.10;88.41
73558;BME280;61829;53.286;10.434;2022-09-24T03:51:09;101014.47;;;12.08;88.11
73558;BME280;61829;53.286;10.434;2022-09-24T03:53:36;101016.53;;;12.06;88.04
73558;BME280;61829;53.286;10.434;2022-09-24T03:56:03;101011.13;;;12.06;88.09
73558;BME280;61829;53.286;10.434;2022-09-24T03:58:32;101015.50;;;12.07;87.90
73558;BME280;61829;53.286;10.434;2022-09-24T04:01:01;101009.25;;;12.07;87.98
73558;BME280;61829;53.286;10.434;2022-09-24T04:03:27;101015.69;;;12.06;87.61
73558;BME280;61829;53.286;10.434;2022-09-24T04:05:53;101013.00;;;12.06;88.52
73558;BME280;61829;53.286;10.434;2022-09-24T04:08:20;101004.69;;;12.07;88.04
73558;BME280;61829;53.286;10.434;2022-09-24T04:10:48;101008.22;;;12.08;88.38
73558;BME280;61829;53.286;10.434;2022-09-24T04:13:15;101003.66;;;12.08;88.27
73558;BME280;61829;53.286;10.434;2022-09-24T04:15:41;101009.91;;;12.09;88.56
73558;BME280;61829;53.286;10.434;2022-09-24T04:18:08;101011.59;;;12.10;88.60
73558;BME280;61829;53.286;10.434;2022-09-24T04:20:35;101010.09;;;12.07;87.88
73558;BME280;61829;53.286;10.434;2022-09-24T04:23:03;101006.56;;;12.07;88.31
73558;BME280;61829;53.286;10.434;2022-09-24T04:25:29;101006.72;;;12.05;88.46
73558;BME280;61829;53.286;10.434;2022-09-24T04:28:05;101008.59;;;12.05;88.05
73558;BME280;61829;53.286;10.434;2022-09-24T04:30:32;101010.47;;;12.04;88.25
73558;BME280;61829;53.286;10.434;2022-09-24T04:33:00;101010.47;;;12.04;88.74
73558;BME280;61829;53.286;10.434;2022-09-24T04:35:29;101005.47;;;12.01;88.43
73558;BME280;61829;53.286;10.434;2022-09-24T04:37:59;101010.84;;;12.01;88.24
73558;BME280;61829;53.286;10.434;2022-09-24T04:40:26;101011.69;;;12.02;88.04
73558;BME280;61829;53.286;10.434;2022-09-24T04:42:52;101009.00;;;12.02;87.77
73558;BME280;61829;53.286;10.434;2022-09-24T04:45:18;101009.19;;;12.00;88.17
73558;BME280;61829;53.286;10.434;2022-09-24T04:47:49;101004.81;;;11.99;88.02
73558;BME280;61829;53.286;10.434;2022-09-24T04:50:31;101007.72;;;11.98;88.15
73558;BME280;61829;53.286;10.434;2022-09-24T04:52:58;101010.59;;;11.96;88.40
73558;BME280;61829;53.286;10.434;2022-09-24T04:55:25;101012.63;;;11.94;88.72
73558;BME280;61829;53.286;10.434;2022-09-24T04:57:56;101013.66;;;11.93;89.32
73558;BME280;61829;53.286;10.434;2022-09-24T05:00:23;101013.00;;;11.91;89.71
73558;BME280;61829;53.286;10.434;2022-09-24T05:02:57;101011.53;;;11.88;89.46
73558;BME280;61829;53.286;10.434;2022-09-24T05:05:30;101006.69;;;11.84;90.14
73558;BME280;61829;53.286;10.434;2022-09-24T05:07:57;101006.00;;;11.82;90.21
73558;BME280;61829;53.286;10.434;2022-09-24T05:10:24;101006.00;;;11.82;90.50
73558;BME280;61829;53.286;10.434;2022-09-24T05:12:54;101007.06;;;11.81;90.10
73558;BME280;61829;53.286;10.434;2022-09-24T05:15:28;101006.19;;;11.80;90.02
73558;BME280;61829;53.286;10.434;2022-09-24T05:18:02;101004.34;;;11.81;90.02
73558;BME280;61829;53.286;10.434;2022-09-24T05:20:28;101002.28;;;11.83;90.44
73558;BME280;61829;53.286;10.434;2022-09-24T05:22:54;100999.41;;;11.84;90.08
73558;BME280;61829;53.286;10.434;2022-09-24T05:25:20;101004.81;;;11.84;90.22
73558;BME280;61829;53.286;10.434;2022-09-24T05:27:54;100997.41;;;11.86;89.93
73558;BME280;61829;53.286;10.434;2022-09-24T05:30:22;100999.56;;;11.83;90.56
73558;BME280;61829;53.286;10.434;2022-09-24T05:32:49;101000.63;;;11.82;90.45
73558;BME280;61829;53.286;10.434;2022-09-24T05:35:22;101004.16;;;11.82;90.70
73558;BME280;61829;53.286;10.434;2022-09-24T05:37:48;100999.78;;;11.81;91.01
73558;BME280;61829;53.286;10.434;2022-09-24T05:40:14;101000.44;;;11.83;90.63
73558;BME280;61829;53.286;10.434;2022-09-24T05:43:00;101006.41;;;11.79;90.99
73558;BME280;61829;53.286;10.434;2022-09-24T05:45:30;101005.34;;;11.80;90.78
73558;BME280;61829;53.286;10.434;2022-09-24T05:47:56;101004.97;;;11.83;90.67
73558;BME280;61829;53.286;10.434;2022-09-24T05:50:24;100997.91;;;11.82;91.03
73558;BME280;61829;53.286;10.434;2022-09-24T05:52:50;101010.38;;;11.83;91.08
73558;BME280;61829;53.286;10.434;2022-09-24T05:55:17;101012.25;;;11.82;90.61
73558;BME280;61829;53.286;10.434;2022-09-24T05:57:43;101005.19;;;11.81;90.98
73558;BME280;61829;53.286;10.434;2022-09-24T06:00:10;101009.38;;;11.84;90.98
73558;BME280;61829;53.286;10.434;2022-09-24T06:02:36;101009.53;;;11.82;91.42
73558;BME280;61829;53.286;10.434;2022-09-24T06:05:02;101015.59;;;11.84;91.44
73558;BME280;61829;53.286;10.434;2022-09-24T06:07:28;101017.66;;;11.82;91.83
73558;BME280;61829;53.286;10.434;2022-09-24T06:09:54;101024.75;;;11.83;91.82
73558;BME280;61829;53.286;10.434;2022-09-24T06:12:19;101025.97;;;11.81;91.65
73558;BME280;61829;53.286;10.434;2022-09-24T06:14:47;101027.63;;;11.82;92.23
73558;BME280;61829;53.286;10.434;2022-09-24T06:17:12;101021.38;;;11.81;91.79
73558;BME280;61829;53.286;10.434;2022-09-24T06:19:38;101029.88;;;11.78;92.24
73558;BME280;61829;53.286;10.434;2022-09-24T06:22:05;101031.72;;;11.78;92.71
73558;BME280;61829;53.286;10.434;2022-09-24T06:24:31;101025.09;;;11.80;92.36
73558;BME280;61829;53.286;10.434;2022-09-24T06:26:57;101024.91;;;11.82;91.96
73558;BME280;61829;53.286;10.434;2022-09-24T06:29:23;101024.09;;;11.81;91.80
73558;BME280;61829;53.286;10.434;2022-09-24T06:31:49;101029.66;;;11.80;91.94
73558;BME280;61829;53.286;10.434;2022-09-24T06:34:18;101023.88;;;11.83;92.13
73558;BME280;61829;53.286;10.434;2022-09-24T06:36:44;101025.56;;;11.84;92.09
73558;BME280;61829;53.286;10.434;2022-09-24T06:39:10;101020.34;;;11.82;92.13
73558;BME280;61829;53.286;10.434;2022-09-24T06:41:36;101024.47;;;11.78;92.52
73558;BME280;61829;53.286;10.434;2022-09-24T06:44:02;101026.97;;;11.80;92.83
73558;BME280;61829;53.286;10.434;2022-09-24T06:46:28;101028.00;;;11.79;93.28
73558;BME280;61829;53.286;10.434;2022-09-24T06:48:55;101028.66;;;11.81;93.31
73558;BME280;61829;53.286;10.434;2022-09-24T06:51:21;101033.69;;;11.84;92.80
73558;BME280;61829;53.286;10.434;2022-09-24T06:53:50;101030.97;;;11.84;92.81
73558;BME280;61829;53.286;10.434;2022-09-24T06:56:18;101029.81;;;11.86;92.78
73558;BME280;61829;53.286;10.434;2022-09-24T06:58:45;101031.47;;;11.87;92.93
73558;BME280;61829;53.286;10.434;2022-09-24T07:01:11;101034.81;;;11.89;93.33
73558;BME280;61829;53.286;10.434;2022-09-24T07:03:37;101038.34;;;11.90;93.06
73558;BME280;61829;53.286;10.434;2022-09-24T07:06:05;101033.78;;;11.90;93.01
73558;BME280;61829;53.286;10.434;2022-09-24T07:08:32;101036.31;;;11.92;93.63
73558;BME280;61829;53.286;10.434;2022-09-24T07:10:58;101036.94;;;11.94;93.63
73558;BME280;61829;53.286;10.434;2022-09-24T07:13:25;101039.25;;;11.97;93.51
73558;BME280;61829;53.286;10.434;2022-09-24T07:15:51;101041.31;;;11.95;93.70
73558;BME280;61829;53.286;10.434;2022-09-24T07:18:18;101039.06;;;11.99;93.20
73558;BME280;61829;53.286;10.434;2022-09-24T07:20:55;101037.22;;;11.99;93.16
73558;BME280;61829;53.286;10.434;2022-09-24T07:23:22;101045.97;;;12.01;92.74
73558;BME280;61829;53.286;10.434;2022-09-24T07:25:48;101044.47;;;11.99;93.27
73558;BME280;61829;53.286;10.434;2022-09-24T07:28:15;101044.09;;;12.02;93.41
73558;BME280;61829;53.286;10.434;2022-09-24T07:30:41;101043.28;;;12.01;93.45
73558;BME280;61829;53.286;10.434;2022-09-24T07:33:07;101047.47;;;12.04;93.43
73558;BME280;61829;53.286;10.434;2022-09-24T07:35:36;101049.94;;;12.05;93.15
73558;BME280;61829;53.286;10.434;2022-09-24T07:38:07;101053.97;;;12.09;93.22
73558;BME280;61829;53.286;10.434;2022-09-24T07:40:37;101059.00;;;12.12;92.15
73558;BME280;61829;53.286;10.434;2022-09-24T07:43:03;101054.34;;;12.06;92.45
73558;BME280;61829;53.286;10.434;2022-09-24T07:45:29;101058.06;;;12.05;92.77
73558;BME280;61829;53.286;10.434;2022-09-24T07:48:01;101053.31;;;12.07;92.76
73558;BME280;61829;53.286;10.434;2022-09-24T07:50:28;101053.13;;;12.09;92.93
73558;BME280;61829;53.286;10.434;2022-09-24T07:52:55;101054.34;;;12.06;93.28
73558;BME280;61829;53.286;10.434;2022-09-24T07:55:22;101054.16;;;12.08;93.17
73558;BME280;61829;53.286;10.434;2022-09-24T07:57:49;101052.47;;;12.07;92.99
73558;BME280;61829;53.286;10.434;2022-09-24T08:00:17;101051.06;;;12.11;93.05
73558;BME280;61829;53.286;10.434;2022-09-24T08:06:57;101049.50;;;12.02;93.96
73558;BME280;61829;53.286;10.434;2022-09-24T08:09:24;101056.84;;;12.08;94.27
73558;BME280;61829;53.286;10.434;2022-09-24T08:11:50;101057.69;;;12.08;94.44
73558;BME280;61829;53.286;10.434;2022-09-24T08:14:16;101053.97;;;12.09;94.31
73558;BME280;61829;53.286;10.434;2022-09-24T08:16:43;101058.78;;;12.14;94.16
73558;BME280;61829;53.286;10.434;2022-09-24T08:19:09;101050.69;;;12.14;94.05
73558;BME280;61829;53.286;10.434;2022-09-24T08:21:38;101052.56;;;12.13;94.32
73558;BME280;61829;53.286;10.434;2022-09-24T08:24:05;101046.59;;;12.18;94.26
73558;BME280;61829;53.286;10.434;2022-09-24T08:26:31;101055.53;;;12.19;94.08
73558;BME280;61829;53.286;10.434;2022-09-24T08:28:57;101056.34;;;12.19;94.25
73558;BME280;61829;53.286;10.434;2022-09-24T08:31:23;101056.19;;;12.21;94.05
73558;BME280;61829;53.286;10.434;2022-09-24T08:33:49;101054.75;;;12.25;93.45
73558;BME280;61829;53.286;10.434;2022-09-24T08:36:16;101057.28;;;12.26;93.27
73558;BME280;61829;53.286;10.434;2022-09-24T08:38:43;101060.16;;;12.25;93.32
73558;BME280;61829;53.286;10.434;2022-09-24T08:41:37;101056.25;;;12.27;93.23
73558;BME280;61829;53.286;10.434;2022-09-24T08:44:11;101047.97;;;12.29;92.48
73558;BME280;61829;53.286;10.434;2022-09-24T08:46:46;101056.69;;;12.31;92.92
73558;BME280;61829;53.286;10.434;2022-09-24T08:49:40;101065.28;;;12.34;92.87
73558;BME280;61829;53.286;10.434;2022-09-24T08:52:35;101057.41;;;12.40;92.90
73558;BME280;61829;53.286;10.434;2022-09-24T08:55:03;101058.28;;;12.40;93.35
73558;BME280;61829;53.286;10.434;2022-09-24T08:58:01;101048.34;;;12.47;93.18
73558;BME280;61829;53.286;10.434;2022-09-24T09:00:33;101055.63;;;12.47;94.01
73558;BME280;61829;53.286;10.434;2022-09-24T09:03:08;101070.63;;;12.49;93.36
73558;BME280;61829;53.286;10.434;2022-09-24T09:05:54;101065.50;;;12.54;93.61
73558;BME280;61829;53.286;10.434;2022-09-24T09:11:09;101069.03;;;12.55;92.95
73558;BME280;61829;53.286;10.434;2022-09-24T09:14:49;101067.81;;;12.57;92.96
73558;BME280;61829;53.286;10.434;2022-09-24T09:16:58;101069.69;;;12.57;92.89
73558;BME280;61829;53.286;10.434;2022-09-24T09:19:32;101063.41;;;12.56;93.28
73558;BME280;61829;53.286;10.434;2022-09-24T09:22:04;101064.91;;;12.59;93.00
73558;BME280;61829;53.286;10.434;2022-09-24T09:24:52;101063.88;;;12.60;92.31
73558;BME280;61829;53.286;10.434;2022-09-24T09:27:20;101068.66;;;12.58;93.01
73558;BME280;61829;53.286;10.434;2022-09-24T09:29:51;101074.88;;;12.58;92.49
73558;BME280;61829;53.286;10.434;2022-09-24T09:32:44;101069.09;;;12.62;92.51
73558;BME280;61829;53.286;10.434;2022-09-24T09:42:59;101066.50;;;12.53;92.50
73558;BME280;61829;53.286;10.434;2022-09-24T09:45:55;101067.16;;;12.55;92.61
73558;BME280;61829;53.286;10.434;2022-09-24T09:48:28;101079.63;;;12.56;92.26
73558;BME280;61829;53.286;10.434;2022-09-24T09:51:04;101078.16;;;12.54;92.78
73558;BME280;61829;53.286;10.434;2022-09-24T09:53:34;101072.56;;;12.55;92.84
73558;BME280;61829;53.286;10.434;2022-09-24T09:56:05;101079.63;;;12.56;92.48
73558;BME280;61829;53.286;10.434;2022-09-24T09:58:35;101080.50;;;12.57;92.76
73558;BME280;61829;53.286;10.434;2022-09-24T10:01:07;101076.38;;;12.61;93.18
73558;BME280;61829;53.286;10.434;2022-09-24T10:03:47;101074.31;;;12.63;92.35
73558;BME280;61829;53.286;10.434;2022-09-24T10:06:29;101073.09;;;12.66;92.86
73558;BME280;61829;53.286;10.434;2022-09-24T10:09:12;101068.69;;;12.65;93.16
73558;BME280;61829;53.286;10.434;2022-09-24T10:11:41;101067.47;;;12.67;93.03
73558;BME280;61829;53.286;10.434;2022-09-24T10:14:12;101070.19;;;12.67;93.22
73558;BME280;61829;53.286;10.434;2022-09-24T10:16:44;101063.56;;;12.70;93.40
73558;BME280;61829;53.286;10.434;2022-09-24T10:19:18;101075.69;;;12.74;92.90
73558;BME280;61829;53.286;10.434;2022-09-24T10:21:45;101063.16;;;12.73;92.97
73558;BME280;61829;53.286;10.434;2022-09-24T10:24:15;101067.19;;;12.77;92.95
73558;BME280;61829;53.286;10.434;2022-09-24T10:26:44;101070.06;;;12.75;92.87
73558;BME280;61829;53.286;10.434;2022-09-24T10:29:21;101073.59;;;12.76;92.53
73558;BME280;61829;53.286;10.434;2022-09-24T10:32:25;101071.72;;;12.76;93.23
73558;BME280;61829;53.286;10.434;2022-09-24T10:34:59;101076.94;;;12.78;93.00
73558;BME280;61829;53.286;10.434;2022-09-24T10:37:28;101080.94;;;12.82;93.14
73558;BME280;61829;53.286;10.434;2022-09-24T10:40:13;101069.94;;;12.84;92.73
73558;BME280;61829;53.286;10.434;2022-09-24T10:42:40;101071.59;;;12.85;92.39
73558;BME280;61829;53.286;10.434;2022-09-24T10:45:11;101067.50;;;12.89;92.52
73558;BME280;61829;53.286;10.434;2022-09-24T10:50:27;101074.16;;;12.93;92.58
73558;BME280;61829;53.286;10.434;2022-09-24T10:53:12;101072.56;;;12.98;92.94
73558;BME280;61829;53.286;10.434;2022-09-24T11:04:53;101070.94;;;13.25;92.76
73558;BME280;61829;53.286;10.434;2022-09-24T11:07:33;101070.16;;;13.32;92.73
73558;BME280;61829;53.286;10.434;2022-09-24T11:35:31;101065.81;;;13.65;91.47
73558;BME280;61829;53.286;10.434;2022-09-24T11:38:06;101074.78;;;13.73;91.73
73558;BME280;61829;53.286;10.434;2022-09-24T11:51:49;101071.16;;;13.93;90.81
73558;BME280;61829;53.286;10.434;2022-09-24T11:54:28;101065.53;;;13.95;90.94
73558;BME280;61829;53.286;10.434;2022-09-24T11:57:04;101061.81;;;13.96;90.29
73558;BME280;61829;53.286;10.434;2022-09-24T11:59:43;101055.31;;;13.90;89.68
73558;BME280;61829;53.286;10.434;2022-09-24T12:02:20;101059.69;;;13.91;88.95
73558;BME280;61829;53.286;10.434;2022-09-24T12:04:56;101056.16;;;13.91;89.46
73558;BME280;61829;53.286;10.434;2022-09-24T12:07:33;101064.47;;;13.89;88.95
73558;BME280;61829;53.286;10.434;2022-09-24T12:10:17;101062.41;;;13.91;89.01
73558;BME280;61829;53.286;10.434;2022-09-24T12:12:47;101061.56;;;13.91;89.15
73558;BME280;61829;53.286;10.434;2022-09-24T12:20:19;101054.44;;;13.83;90.10
73558;BME280;61829;53.286;10.434;2022-09-24T12:22:48;101062.38;;;13.85;89.31
73558;BME280;61829;53.286;10.434;2022-09-24T12:25:16;101060.91;;;13.82;88.81
73558;BME280;61829;53.286;10.434;2022-09-24T12:27:43;101057.75;;;13.79;87.96
73558;BME280;61829;53.286;10.434;2022-09-24T12:38:37;101050.47;;;13.79;88.66
73558;BME280;61829;53.286;10.434;2022-09-24T12:43:54;101049.66;;;13.85;88.70
73558;BME280;61829;53.286;10.434;2022-09-24T12:49:34;101049.84;;;13.84;89.43
73558;BME280;61829;53.286;10.434;2022-09-24T12:52:18;101048.59;;;13.86;89.51
73558;BME280;61829;53.286;10.434;2022-09-24T12:54:55;101044.47;;;13.90;90.07
73558;BME280;61829;53.286;10.434;2022-09-24T12:57:41;101043.66;;;13.97;89.96
73558;BME280;61829;53.286;10.434;2022-09-24T13:03:02;101050.31;;;13.94;87.43
73558;BME280;61829;53.286;10.434;2022-09-24T13:11:01;101039.06;;;13.97;88.66
73558;BME280;61829;53.286;10.434;2022-09-24T13:13:32;101043.69;;;14.03;89.52
73558;BME280;61829;53.286;10.434;2022-09-24T13:18:32;101040.59;;;14.13;88.12
73558;BME280;61829;53.286;10.434;2022-09-24T13:21:06;101041.22;;;14.15;88.69
73558;BME280;61829;53.286;10.434;2022-09-24T13:26:06;101036.03;;;14.20;88.53
73558;BME280;61829;53.286;10.434;2022-09-24T13:28:52;101036.66;;;14.22;88.39
73558;BME280;61829;53.286;10.434;2022-09-24T13:31:28;101037.28;;;14.18;87.73
73558;BME280;61829;53.286;10.434;2022-09-24T13:33:57;101041.03;;;14.17;88.90
73558;BME280;61829;53.286;10.434;2022-09-24T13:45:03;101039.97;;;14.11;88.77
73558;BME280;61829;53.286;10.434;2022-09-24T13:47:48;101032.25;;;14.08;88.71
73558;BME280;61829;53.286;10.434;2022-09-24T13:52:59;101034.13;;;14.07;88.58
73558;BME280;61829;53.286;10.434;2022-09-24T13:55:37;101038.06;;;14.05;89.71
73558;BME280;61829;53.286;10.434;2022-09-24T13:58:25;101032.25;;;14.08;89.39
73558;BME280;61829;53.286;10.434;2022-09-24T14:00:53;101026.41;;;14.11;88.62
73558;BME280;61829;53.286;10.434;2022-09-24T14:03:55;101030.38;;;14.15;88.89
73558;BME280;61829;53.286;10.434;2022-09-24T14:06:35;101019.53;;;14.15;89.09
73558;BME280;61829;53.286;10.434;2022-09-24T14:09:13;101028.31;;;14.17;88.89
73558;BME280;61829;53.286;10.434;2022-09-24T14:11:47;101032.50;;;14.20;89.33
73558;BME280;61829;53.286;10.434;2022-09-24T14:14:20;101027.50;;;14.23;89.28
73558;BME280;61829;53.286;10.434;2022-09-24T14:16:48;101024.38;;;14.26;88.41
73558;BME280;61829;53.286;10.434;2022-09-24T14:19:14;101032.72;;;14.31;88.99
73558;BME280;61829;53.286;10.434;2022-09-24T14:21:45;101030.66;;;14.33;89.22
73558;BME280;61829;53.286;10.434;2022-09-24T14:27:08;101021.06;;;14.37;88.98
73558;BME280;61829;53.286;10.434;2022-09-24T14:32:27;101020.41;;;14.22;88.39
73558;BME280;61829;53.286;10.434;2022-09-24T14:35:18;101015.00;;;14.22;88.57
73558;BME280;61829;53.286;10.434;2022-09-24T14:38:07;101019.13;;;14.18;88.56
73558;BME280;61829;53.286;10.434;2022-09-24T14:40:44;101016.22;;;14.13;89.07
73558;BME280;61829;53.286;10.434;2022-09-24T14:43:19;101011.81;;;14.12;89.18
73558;BME280;61829;53.286;10.434;2022-09-24T14:45:48;101010.16;;;14.11;89.24
73558;BME280;61829;53.286;10.434;2022-09-24T14:48:19;101011.22;;;14.10;89.59
73558;BME280;61829;53.286;10.434;2022-09-24T14:50:50;101005.97;;;14.08;89.82
73558;BME280;61829;53.286;10.434;2022-09-24T14:53:23;101011.41;;;14.08;89.65
73558;BME280;61829;53.286;10.434;2022-09-24T14:55:50;101008.25;;;14.05;89.81
73558;BME280;61829;53.286;10.434;2022-09-24T15:00:53;101005.13;;;14.01;90.08
73558;BME280;61829;53.286;10.434;2022-09-24T15:03:27;101001.38;;;13.96;90.08
73558;BME280;61829;53.286;10.434;2022-09-24T15:06:50;101000.50;;;13.95;90.73
73558;BME280;61829;53.286;10.434;2022-09-24T15:11:23;101002.78;;;13.85;88.71
73558;BME280;61829;53.286;10.434;2022-09-24T15:16:42;101009.19;;;13.77;88.21
73558;BME280;61829;53.286;10.434;2022-09-24T15:21:49;101008.16;;;13.78;89.07
73558;BME280;61829;53.286;10.434;2022-09-24T15:24:19;101010.66;;;13.80;89.12
73558;BME280;61829;53.286;10.434;2022-09-24T15:26:47;101007.31;;;13.78;88.90
73558;BME280;61829;53.286;10.434;2022-09-24T15:29:18;101010.03;;;13.78;89.22